sensor_id;sensor_type;location;lat;lon;timestamp;P1;durP1;ratioP1;P2;durP2;ratioP2
10957;SDS011;5531;42.570;23.676;2023-08-20T00:00:23;11.38;;;8.95;;
10957;SDS011;5531;42.570;23.676;2023-08-20T00:02:58;9.27;;;8.23;;
10957;SDS011;5531;42.570;23.676;2023-08-20T00:05:31;9.52;;;8.48;;
10957;SDS011;5531;42.570;23.676;2023-08-20T00:08:00;9.98;;;8.90;;
10957;SDS011;5531;42.570;23.676;2023-08-20T00:10:28;12.70;;;8.85;;
10957;SDS011;5531;42.570;23.676;2023-08-20T00:12:57;10.27;;;9.23;;
10957;SDS011;5531;42.570;23.676;2023-08-20T00:15:25;10.43;;;9.25;;
10957;SDS011;5531;42.570;23.676;2023-08-20T00:17:55;10.48;;;8.68;;
10957;SDS011;5531;42.570;23.676;2023-08-20T00:20:24;10.93;;;9.13;;
10957;SDS011;5531;42.570;23.676;2023-08-20T00:22:56;11.18;;;8.60;;
10957;SDS011;5531;42.570;23.676;2023-08-20T00:25:25;12.32;;;8.57;;
10957;SDS011;5531;42.570;23.676;2023-08-20T00:27:53;13.43;;;9.20;;
10957;SDS011;5531;42.570;23.676;2023-08-20T00:30:22;10.00;;;8.93;;
10957;SDS011;5531;42.570;23.676;2023-08-20T00:32:50;9.75;;;8.70;;
10957;SDS011;5531;42.570;23.676;2023-08-20T00:35:19;10.43;;;8.68;;
10957;SDS011;5531;42.570;23.676;2023-08-20T00:37:48;11.23;;;8.75;;
10957;SDS011;5531;42.570;23.676;2023-08-20T00:40:19;10.45;;;9.18;;
10957;SDS011;5531;42.570;23.676;2023-08-20T00:42:49;10.43;;;9.32;;
10957;SDS011;5531;42.570;23.676;2023-08-20T00:45:17;9.25;;;8.20;;
10957;SDS011;5531;42.570;23.676;2023-08-20T00:47:46;9.73;;;8.80;;
10957;SDS011;5531;42.570;23.676;2023-08-20T00:50:15;10.88;;;8.60;;
10957;SDS011;5531;42.570;23.676;2023-08-20T00:52:44;10.85;;;9.25;;
10957;SDS011;5531;42.570;23.676;2023-08-20T00:55:13;10.43;;;9.43;;
10957;SDS011;5531;42.570;23.676;2023-08-20T00:57:44;11.40;;;9.27;;
10957;SDS011;5531;42.570;23.676;2023-08-20T01:00:13;12.00;;;9.85;;
10957;SDS011;5531;42.570;23.676;2023-08-20T01:02:41;10.07;;;9.07;;
10957;SDS011;5531;42.570;23.676;2023-08-20T01:05:10;10.60;;;9.50;;
10957;SDS011;5531;42.570;23.676;2023-08-20T01:07:43;10.00;;;9.10;;
10957;SDS011;5531;42.570;23.676;2023-08-20T01:10:15;11.88;;;9.27;;
10957;SDS011;5531;42.570;23.676;2023-08-20T01:12:48;10.55;;;9.30;;
10957;SDS011;5531;42.570;23.676;2023-08-20T01:15:18;10.20;;;9.13;;
10957;SDS011;5531;42.570;23.676;2023-08-20T01:17:48;9.95;;;8.95;;
10957;SDS011;5531;42.570;23.676;2023-08-20T01:20:16;10.10;;;9.10;;
10957;SDS011;5531;42.570;23.676;2023-08-20T01:25:32;11.95;;;9.38;;
10957;SDS011;5531;42.570;23.676;2023-08-20T01:30:42;11.82;;;9.38;;
10957;SDS011;5531;42.570;23.676;2023-08-20T01:33:14;10.10;;;9.02;;
10957;SDS011;5531;42.570;23.676;2023-08-20T01:35:43;10.07;;;9.07;;
10957;SDS011;5531;42.570;23.676;2023-08-20T01:38:11;9.63;;;8.60;;
10957;SDS011;5531;42.570;23.676;2023-08-20T01:40:40;9.75;;;8.75;;
10957;SDS011;5531;42.570;23.676;2023-08-20T01:43:08;11.75;;;8.50;;
10957;SDS011;5531;42.570;23.676;2023-08-20T01:45:36;10.10;;;9.02;;
10957;SDS011;5531;42.570;23.676;2023-08-20T01:48:08;9.68;;;8.68;;
10957;SDS011;5531;42.570;23.676;2023-08-20T01:50:36;11.50;;;9.20;;
10957;SDS011;5531;42.570;23.676;2023-08-20T01:53:05;11.48;;;9.18;;
10957;SDS011;5531;42.570;23.676;2023-08-20T01:55:35;9.57;;;8.57;;
10957;SDS011;5531;42.570;23.676;2023-08-20T01:58:03;11.90;;;9.25;;
10957;SDS011;5531;42.570;23.676;2023-08-20T02:00:32;9.68;;;8.68;;
10957;SDS011;5531;42.570;23.676;2023-08-20T02:03:00;10.27;;;9.27;;
10957;SDS011;5531;42.570;23.676;2023-08-20T02:05:31;10.70;;;9.48;;
10957;SDS011;5531;42.570;23.676;2023-08-20T02:08:00;11.18;;;9.57;;
10957;SDS011;5531;42.570;23.676;2023-08-20T02:10:28;10.38;;;9.38;;
10957;SDS011;5531;42.570;23.676;2023-08-20T02:12:57;9.90;;;9.00;;
10957;SDS011;5531;42.570;23.676;2023-08-20T02:15:25;10.52;;;9.23;;
10957;SDS011;5531;42.570;23.676;2023-08-20T02:17:54;10.32;;;9.18;;
10957;SDS011;5531;42.570;23.676;2023-08-20T02:20:26;10.57;;;9.57;;
10957;SDS011;5531;42.570;23.676;2023-08-20T02:22:57;12.75;;;9.27;;
10957;SDS011;5531;42.570;23.676;2023-08-20T02:25:26;11.18;;;9.30;;
10957;SDS011;5531;42.570;23.676;2023-08-20T02:27:54;11.00;;;9.88;;
10957;SDS011;5531;42.570;23.676;2023-08-20T02:30:23;11.40;;;9.90;;
10957;SDS011;5531;42.570;23.676;2023-08-20T02:32:52;15.25;;;10.07;;
10957;SDS011;5531;42.570;23.676;2023-08-20T02:35:20;10.65;;;9.55;;
10957;SDS011;5531;42.570;23.676;2023-08-20T02:37:49;10.98;;;9.23;;
10957;SDS011;5531;42.570;23.676;2023-08-20T02:40:20;11.35;;;9.90;;
10957;SDS011;5531;42.570;23.676;2023-08-20T02:42:48;11.05;;;9.80;;
10957;SDS011;5531;42.570;23.676;2023-08-20T02:45:17;13.15;;;10.05;;
10957;SDS011;5531;42.570;23.676;2023-08-20T02:47:45;11.77;;;10.50;;
10957;SDS011;5531;42.570;23.676;2023-08-20T02:50:14;11.18;;;9.90;;
10957;SDS011;5531;42.570;23.676;2023-08-20T02:52:43;14.50;;;10.20;;
10957;SDS011;5531;42.570;23.676;2023-08-20T02:55:11;11.43;;;10.20;;
10957;SDS011;5531;42.570;23.676;2023-08-20T02:57:42;13.27;;;10.77;;
10957;SDS011;5531;42.570;23.676;2023-08-20T03:00:11;11.90;;;10.63;;
10957;SDS011;5531;42.570;23.676;2023-08-20T03:02:41;12.32;;;10.25;;
10957;SDS011;5531;42.570;23.676;2023-08-20T03:05:10;12.25;;;10.57;;
10957;SDS011;5531;42.570;23.676;2023-08-20T03:07:39;11.23;;;10.10;;
10957;SDS011;5531;42.570;23.676;2023-08-20T03:10:08;11.38;;;10.20;;
10957;SDS011;5531;42.570;23.676;2023-08-20T03:12:37;12.07;;;9.70;;
10957;SDS011;5531;42.570;23.676;2023-08-20T03:15:08;12.10;;;9.88;;
10957;SDS011;5531;42.570;23.676;2023-08-20T03:17:37;11.35;;;10.02;;
10957;SDS011;5531;42.570;23.676;2023-08-20T03:20:06;10.93;;;9.82;;
10957;SDS011;5531;42.570;23.676;2023-08-20T03:22:35;11.30;;;10.15;;
10957;SDS011;5531;42.570;23.676;2023-08-20T03:25:04;10.20;;;9.13;;
10957;SDS011;5531;42.570;23.676;2023-08-20T03:27:33;10.98;;;9.98;;
10957;SDS011;5531;42.570;23.676;2023-08-20T03:30:01;10.50;;;9.50;;
10957;SDS011;5531;42.570;23.676;2023-08-20T03:32:33;10.10;;;9.10;;
10957;SDS011;5531;42.570;23.676;2023-08-20T03:35:02;10.55;;;9.63;;
10957;SDS011;5531;42.570;23.676;2023-08-20T03:37:30;15.07;;;10.23;;
10957;SDS011;5531;42.570;23.676;2023-08-20T03:39:59;14.63;;;9.60;;
10957;SDS011;5531;42.570;23.676;2023-08-20T03:42:25;12.38;;;9.38;;
10957;SDS011;5531;42.570;23.676;2023-08-20T03:44:53;9.32;;;8.40;;
10957;SDS011;5531;42.570;23.676;2023-08-20T03:47:22;9.18;;;8.18;;
10957;SDS011;5531;42.570;23.676;2023-08-20T03:49:53;9.02;;;8.23;;
10957;SDS011;5531;42.570;23.676;2023-08-20T03:52:21;8.90;;;8.00;;
10957;SDS011;5531;42.570;23.676;2023-08-20T03:54:50;8.88;;;7.88;;
10957;SDS011;5531;42.570;23.676;2023-08-20T03:57:18;9.23;;;8.30;;
10957;SDS011;5531;42.570;23.676;2023-08-20T03:59:47;8.45;;;7.65;;
10957;SDS011;5531;42.570;23.676;2023-08-20T04:02:16;9.15;;;7.93;;
10957;SDS011;5531;42.570;23.676;2023-08-20T04:04:44;9.30;;;8.40;;
10957;SDS011;5531;42.570;23.676;2023-08-20T04:07:15;9.30;;;8.40;;
10957;SDS011;5531;42.570;23.676;2023-08-20T04:09:44;9.27;;;8.23;;
10957;SDS011;5531;42.570;23.676;2023-08-20T04:12:12;9.77;;;8.40;;
10957;SDS011;5531;42.570;23.676;2023-08-20T04:14:41;9.02;;;8.13;;
10957;SDS011;5531;42.570;23.676;2023-08-20T04:17:09;20.35;;;9.10;;
10957;SDS011;5531;42.570;23.676;2023-08-20T04:19:38;9.30;;;8.35;;
10957;SDS011;5531;42.570;23.676;2023-08-20T04:22:06;9.57;;;8.77;;
10957;SDS011;5531;42.570;23.676;2023-08-20T04:24:38;13.20;;;8.70;;
10957;SDS011;5531;42.570;23.676;2023-08-20T04:27:07;10.57;;;8.50;;
10957;SDS011;5531;42.570;23.676;2023-08-20T04:29:36;11.05;;;10.05;;
10957;SDS011;5531;42.570;23.676;2023-08-20T04:32:04;8.85;;;8.05;;
10957;SDS011;5531;42.570;23.676;2023-08-20T04:34:33;9.40;;;8.50;;
10957;SDS011;5531;42.570;23.676;2023-08-20T04:37:01;9.38;;;8.48;;
10957;SDS011;5531;42.570;23.676;2023-08-20T04:39:30;9.20;;;8.13;;
10957;SDS011;5531;42.570;23.676;2023-08-20T04:42:01;9.20;;;8.30;;
10957;SDS011;5531;42.570;23.676;2023-08-20T04:44:30;8.95;;;7.93;;
10957;SDS011;5531;42.570;23.676;2023-08-20T04:46:59;9.35;;;8.15;;
10957;SDS011;5531;42.570;23.676;2023-08-20T04:49:28;8.75;;;7.95;;
10957;SDS011;5531;42.570;23.676;2023-08-20T04:51:57;9.60;;;8.38;;
10957;SDS011;5531;42.570;23.676;2023-08-20T04:54:25;9.05;;;8.25;;
10957;SDS011;5531;42.570;23.676;2023-08-20T04:56:54;10.52;;;7.95;;
10957;SDS011;5531;42.570;23.676;2023-08-20T04:59:25;9.45;;;8.55;;
10957;SDS011;5531;42.570;23.676;2023-08-20T05:01:54;9.13;;;8.07;;
10957;SDS011;5531;42.570;23.676;2023-08-20T05:04:22;9.18;;;8.18;;
10957;SDS011;5531;42.570;23.676;2023-08-20T05:06:51;8.73;;;7.93;;
10957;SDS011;5531;42.570;23.676;2023-08-20T05:09:20;8.60;;;7.60;;
10957;SDS011;5531;42.570;23.676;2023-08-20T05:11:49;8.35;;;7.55;;
10957;SDS011;5531;42.570;23.676;2023-08-20T05:14:17;7.70;;;7.00;;
10957;SDS011;5531;42.570;23.676;2023-08-20T05:16:48;7.38;;;6.65;;
10957;SDS011;5531;42.570;23.676;2023-08-20T05:19:17;10.45;;;7.72;;
10957;SDS011;5531;42.570;23.676;2023-08-20T05:21:45;9.98;;;7.85;;
10957;SDS011;5531;42.570;23.676;2023-08-20T05:24:14;7.70;;;7.03;;
10957;SDS011;5531;42.570;23.676;2023-08-20T05:26:42;7.13;;;6.30;;
10957;SDS011;5531;42.570;23.676;2023-08-20T05:29:11;7.85;;;7.15;;
10957;SDS011;5531;42.570;23.676;2023-08-20T05:31:39;7.95;;;6.82;;
10957;SDS011;5531;42.570;23.676;2023-08-20T05:34:11;7.43;;;6.65;;
10957;SDS011;5531;42.570;23.676;2023-08-20T05:36:39;8.23;;;6.80;;
10957;SDS011;5531;42.570;23.676;2023-08-20T05:39:08;7.03;;;6.32;;
10957;SDS011;5531;42.570;23.676;2023-08-20T05:41:36;6.72;;;6.13;;
10957;SDS011;5531;42.570;23.676;2023-08-20T05:44:05;7.88;;;6.35;;
10957;SDS011;5531;42.570;23.676;2023-08-20T05:46:33;8.65;;;6.53;;
10957;SDS011;5531;42.570;23.676;2023-08-20T05:49:02;9.50;;;6.78;;
10957;SDS011;5531;42.570;23.676;2023-08-20T05:51:33;7.95;;;6.65;;
10957;SDS011;5531;42.570;23.676;2023-08-20T05:54:02;8.13;;;6.80;;
10957;SDS011;5531;42.570;23.676;2023-08-20T05:56:30;8.13;;;7.03;;
10957;SDS011;5531;42.570;23.676;2023-08-20T05:58:59;10.73;;;7.15;;
10957;SDS011;5531;42.570;23.676;2023-08-20T06:01:27;9.65;;;6.80;;
10957;SDS011;5531;42.570;23.676;2023-08-20T06:03:56;9.10;;;6.50;;
10957;SDS011;5531;42.570;23.676;2023-08-20T06:06:25;6.97;;;6.20;;
10957;SDS011;5531;42.570;23.676;2023-08-20T06:08:57;7.05;;;6.28;;
10957;SDS011;5531;42.570;23.676;2023-08-20T06:11:25;6.95;;;6.30;;
10957;SDS011;5531;42.570;23.676;2023-08-20T06:13:54;8.20;;;5.93;;
10957;SDS011;5531;42.570;23.676;2023-08-20T06:16:22;7.10;;;6.40;;
10957;SDS011;5531;42.570;23.676;2023-08-20T06:18:51;7.55;;;6.75;;
10957;SDS011;5531;42.570;23.676;2023-08-20T06:21:19;7.15;;;6.45;;
10957;SDS011;5531;42.570;23.676;2023-08-20T06:23:48;8.13;;;6.40;;
10957;SDS011;5531;42.570;23.676;2023-08-20T06:26:19;7.10;;;6.40;;
10957;SDS011;5531;42.570;23.676;2023-08-20T06:28:48;8.57;;;6.35;;
10957;SDS011;5531;42.570;23.676;2023-08-20T06:31:16;7.45;;;6.70;;
10957;SDS011;5531;42.570;23.676;2023-08-20T06:33:46;8.88;;;8.00;;
10957;SDS011;5531;42.570;23.676;2023-08-20T06:36:15;9.45;;;7.25;;
10957;SDS011;5531;42.570;23.676;2023-08-20T06:38:44;7.70;;;6.70;;
10957;SDS011;5531;42.570;23.676;2023-08-20T06:41:12;7.38;;;6.65;;
10957;SDS011;5531;42.570;23.676;2023-08-20T06:43:43;7.10;;;6.40;;
10957;SDS011;5531;42.570;23.676;2023-08-20T06:46:12;7.70;;;6.72;;
10957;SDS011;5531;42.570;23.676;2023-08-20T06:48:40;6.85;;;6.18;;
10957;SDS011;5531;42.570;23.676;2023-08-20T06:51:10;6.57;;;5.97;;
10957;SDS011;5531;42.570;23.676;2023-08-20T06:53:40;7.57;;;6.00;;
10957;SDS011;5531;42.570;23.676;2023-08-20T06:56:09;8.15;;;6.05;;
10957;SDS011;5531;42.570;23.676;2023-08-20T06:58:38;9.48;;;6.05;;
10957;SDS011;5531;42.570;23.676;2023-08-20T07:01:10;7.03;;;6.32;;
10957;SDS011;5531;42.570;23.676;2023-08-20T07:03:38;8.88;;;6.32;;
10957;SDS011;5531;42.570;23.676;2023-08-20T07:06:07;8.07;;;6.03;;
10957;SDS011;5531;42.570;23.676;2023-08-20T07:08:39;6.72;;;5.38;;
10957;SDS011;5531;42.570;23.676;2023-08-20T07:11:08;6.05;;;5.50;;
10957;SDS011;5531;42.570;23.676;2023-08-20T07:13:36;6.25;;;5.32;;
10957;SDS011;5531;42.570;23.676;2023-08-20T07:16:05;6.95;;;5.07;;
10957;SDS011;5531;42.570;23.676;2023-08-20T07:18:36;6.30;;;5.70;;
10957;SDS011;5531;42.570;23.676;2023-08-20T07:21:04;6.45;;;5.13;;
10957;SDS011;5531;42.570;23.676;2023-08-20T07:23:33;6.55;;;5.50;;
10957;SDS011;5531;42.570;23.676;2023-08-20T07:26:05;6.07;;;5.50;;
10957;SDS011;5531;42.570;23.676;2023-08-20T07:28:34;4.88;;;4.40;;
10957;SDS011;5531;42.570;23.676;2023-08-20T07:31:31;5.18;;;4.63;;
10957;SDS011;5531;42.570;23.676;2023-08-20T07:34:02;5.95;;;4.40;;
10957;SDS011;5531;42.570;23.676;2023-08-20T07:36:31;7.15;;;5.28;;
10957;SDS011;5531;42.570;23.676;2023-08-20T07:39:00;7.05;;;4.80;;
10957;SDS011;5531;42.570;23.676;2023-08-20T07:41:28;5.25;;;4.57;;
10957;SDS011;5531;42.570;23.676;2023-08-20T07:43:57;5.43;;;4.93;;
10957;SDS011;5531;42.570;23.676;2023-08-20T07:46:25;5.35;;;4.80;;
10957;SDS011;5531;42.570;23.676;2023-08-20T07:48:54;6.68;;;4.32;;
10957;SDS011;5531;42.570;23.676;2023-08-20T07:51:25;6.50;;;4.60;;
10957;SDS011;5531;42.570;23.676;2023-08-20T07:53:54;5.10;;;4.57;;
10957;SDS011;5531;42.570;23.676;2023-08-20T07:56:23;5.25;;;4.45;;
10957;SDS011;5531;42.570;23.676;2023-08-20T07:58:52;6.05;;;4.90;;
10957;SDS011;5531;42.570;23.676;2023-08-20T08:01:20;6.07;;;4.93;;
10957;SDS011;5531;42.570;23.676;2023-08-20T08:03:49;5.47;;;4.45;;
10957;SDS011;5531;42.570;23.676;2023-08-20T08:06:17;5.13;;;4.63;;
10957;SDS011;5531;42.570;23.676;2023-08-20T08:08:51;6.30;;;4.88;;
10957;SDS011;5531;42.570;23.676;2023-08-20T08:11:19;5.30;;;4.80;;
10957;SDS011;5531;42.570;23.676;2023-08-20T08:13:49;5.13;;;4.35;;
10957;SDS011;5531;42.570;23.676;2023-08-20T08:16:18;4.82;;;4.43;;
10957;SDS011;5531;42.570;23.676;2023-08-20T08:18:46;5.45;;;4.22;;
10957;SDS011;5531;42.570;23.676;2023-08-20T08:21:15;4.65;;;4.10;;
10957;SDS011;5531;42.570;23.676;2023-08-20T08:23:43;4.50;;;4.10;;
10957;SDS011;5531;42.570;23.676;2023-08-20T08:26:15;4.82;;;4.15;;
10957;SDS011;5531;42.570;23.676;2023-08-20T08:28:44;5.07;;;4.25;;
10957;SDS011;5531;42.570;23.676;2023-08-20T08:31:12;4.32;;;3.92;;
10957;SDS011;5531;42.570;23.676;2023-08-20T08:33:41;5.68;;;4.05;;
10957;SDS011;5531;42.570;23.676;2023-08-20T08:36:09;5.43;;;3.92;;
10957;SDS011;5531;42.570;23.676;2023-08-20T08:38:38;5.60;;;4.20;;
10957;SDS011;5531;42.570;23.676;2023-08-20T08:41:07;5.40;;;4.20;;
10957;SDS011;5531;42.570;23.676;2023-08-20T08:43:41;6.30;;;4.20;;
10957;SDS011;5531;42.570;23.676;2023-08-20T08:46:11;5.35;;;4.32;;
10957;SDS011;5531;42.570;23.676;2023-08-20T08:48:40;5.72;;;4.40;;
10957;SDS011;5531;42.570;23.676;2023-08-20T08:51:09;4.75;;;3.97;;
10957;SDS011;5531;42.570;23.676;2023-08-20T08:53:38;4.50;;;4.10;;
10957;SDS011;5531;42.570;23.676;2023-08-20T08:56:06;3.90;;;3.60;;
10957;SDS011;5531;42.570;23.676;2023-08-20T08:58:35;4.47;;;3.60;;
10957;SDS011;5531;42.570;23.676;2023-08-20T09:01:06;4.50;;;4.10;;
10957;SDS011;5531;42.570;23.676;2023-08-20T09:03:35;5.40;;;4.28;;
10957;SDS011;5531;42.570;23.676;2023-08-20T09:06:08;24.80;;;5.30;;
10957;SDS011;5531;42.570;23.676;2023-08-20T09:08:36;6.20;;;4.22;;
10957;SDS011;5531;42.570;23.676;2023-08-20T09:11:05;5.25;;;4.13;;
10957;SDS011;5531;42.570;23.676;2023-08-20T09:13:34;4.45;;;4.03;;
10957;SDS011;5531;42.570;23.676;2023-08-20T09:16:06;4.43;;;4.03;;
10957;SDS011;5531;42.570;23.676;2023-08-20T09:18:38;4.57;;;4.05;;
10957;SDS011;5531;42.570;23.676;2023-08-20T09:21:07;4.30;;;3.90;;
10957;SDS011;5531;42.570;23.676;2023-08-20T09:23:36;5.60;;;4.18;;
10957;SDS011;5531;42.570;23.676;2023-08-20T09:26:06;4.03;;;3.72;;
10957;SDS011;5531;42.570;23.676;2023-08-20T09:28:40;4.93;;;4.10;;
10957;SDS011;5531;42.570;23.676;2023-08-20T09:31:11;4.15;;;3.75;;
10957;SDS011;5531;42.570;23.676;2023-08-20T09:33:48;4.32;;;3.97;;
10957;SDS011;5531;42.570;23.676;2023-08-20T09:36:16;4.45;;;3.70;;
10957;SDS011;5531;42.570;23.676;2023-08-20T09:38:45;3.83;;;3.53;;
10957;SDS011;5531;42.570;23.676;2023-08-20T09:41:14;5.35;;;3.85;;
10957;SDS011;5531;42.570;23.676;2023-08-20T09:43:42;4.10;;;3.80;;
10957;SDS011;5531;42.570;23.676;2023-08-20T09:46:15;4.43;;;3.83;;
10957;SDS011;5531;42.570;23.676;2023-08-20T09:48:45;4.60;;;3.40;;
10957;SDS011;5531;42.570;23.676;2023-08-20T09:51:16;4.07;;;3.58;;
10957;SDS011;5531;42.570;23.676;2023-08-20T09:53:48;4.03;;;3.63;;
10957;SDS011;5531;42.570;23.676;2023-08-20T09:56:19;4.65;;;3.63;;
10957;SDS011;5531;42.570;23.676;2023-08-20T09:58:49;3.72;;;3.40;;
10957;SDS011;5531;42.570;23.676;2023-08-20T10:01:21;6.70;;;3.33;;
10957;SDS011;5531;42.570;23.676;2023-08-20T10:03:50;4.43;;;3.22;;
10957;SDS011;5531;42.570;23.676;2023-08-20T10:06:19;3.97;;;3.42;;
10957;SDS011;5531;42.570;23.676;2023-08-20T10:08:48;3.90;;;3.50;;
10957;SDS011;5531;42.570;23.676;2023-08-20T10:11:16;4.38;;;3.30;;
10957;SDS011;5531;42.570;23.676;2023-08-20T10:13:45;3.33;;;3.03;;
10957;SDS011;5531;42.570;23.676;2023-08-20T10:16:13;3.80;;;3.50;;
10957;SDS011;5531;42.570;23.676;2023-08-20T10:18:49;6.35;;;3.88;;
10957;SDS011;5531;42.570;23.676;2023-08-20T10:21:23;3.85;;;3.45;;
10957;SDS011;5531;42.570;23.676;2023-08-20T10:23:52;4.03;;;3.67;;
10957;SDS011;5531;42.570;23.676;2023-08-20T10:26:21;3.63;;;3.20;;
10957;SDS011;5531;42.570;23.676;2023-08-20T10:28:50;5.35;;;3.95;;
10957;SDS011;5531;42.570;23.676;2023-08-20T10:31:18;4.78;;;4.05;;
10957;SDS011;5531;42.570;23.676;2023-08-20T10:33:53;3.85;;;3.50;;
10957;SDS011;5531;42.570;23.676;2023-08-20T10:36:23;4.53;;;3.33;;
10957;SDS011;5531;42.570;23.676;2023-08-20T10:38:54;4.65;;;3.60;;
10957;SDS011;5531;42.570;23.676;2023-08-20T10:41:26;3.97;;;3.67;;
10957;SDS011;5531;42.570;23.676;2023-08-20T10:43:57;4.18;;;3.78;;
10957;SDS011;5531;42.570;23.676;2023-08-20T10:46:26;4.15;;;3.53;;
10957;SDS011;5531;42.570;23.676;2023-08-20T10:48:58;3.38;;;3.13;;
10957;SDS011;5531;42.570;23.676;2023-08-20T10:51:28;5.47;;;3.60;;
10957;SDS011;5531;42.570;23.676;2023-08-20T10:54:06;4.38;;;3.47;;
10957;SDS011;5531;42.570;23.676;2023-08-20T10:56:45;3.78;;;3.47;;
10957;SDS011;5531;42.570;23.676;2023-08-20T10:59:14;3.78;;;3.47;;
10957;SDS011;5531;42.570;23.676;2023-08-20T11:01:43;3.60;;;3.30;;
10957;SDS011;5531;42.570;23.676;2023-08-20T11:04:15;3.60;;;3.30;;
10957;SDS011;5531;42.570;23.676;2023-08-20T11:06:44;4.82;;;3.55;;
10957;SDS011;5531;42.570;23.676;2023-08-20T11:09:13;4.22;;;3.58;;
10957;SDS011;5531;42.570;23.676;2023-08-20T11:11:42;4.93;;;3.53;;
10957;SDS011;5531;42.570;23.676;2023-08-20T11:14:12;4.95;;;3.50;;
10957;SDS011;5531;42.570;23.676;2023-08-20T11:16:41;4.30;;;3.60;;
10957;SDS011;5531;42.570;23.676;2023-08-20T11:19:10;4.15;;;3.40;;
10957;SDS011;5531;42.570;23.676;2023-08-20T11:21:42;4.10;;;3.70;;
10957;SDS011;5531;42.570;23.676;2023-08-20T11:24:11;6.20;;;3.58;;
10957;SDS011;5531;42.570;23.676;2023-08-20T11:26:40;3.60;;;3.28;;
10957;SDS011;5531;42.570;23.676;2023-08-20T11:29:09;8.13;;;3.70;;
10957;SDS011;5531;42.570;23.676;2023-08-20T11:31:38;4.00;;;3.58;;
10957;SDS011;5531;42.570;23.676;2023-08-20T11:34:07;3.55;;;3.25;;
10957;SDS011;5531;42.570;23.676;2023-08-20T11:36:35;3.72;;;3.20;;
10957;SDS011;5531;42.570;23.676;2023-08-20T11:39:09;4.30;;;3.25;;
10957;SDS011;5531;42.570;23.676;2023-08-20T11:41:38;3.60;;;3.30;;
10957;SDS011;5531;42.570;23.676;2023-08-20T11:44:08;3.70;;;3.40;;
10957;SDS011;5531;42.570;23.676;2023-08-20T11:46:41;4.38;;;3.30;;
10957;SDS011;5531;42.570;23.676;2023-08-20T11:49:13;4.82;;;3.83;;
10957;SDS011;5531;42.570;23.676;2023-08-20T11:51:42;4.00;;;3.60;;
10957;SDS011;5531;42.570;23.676;2023-08-20T11:54:14;3.55;;;3.25;;
10957;SDS011;5531;42.570;23.676;2023-08-20T11:56:43;4.00;;;3.38;;
10957;SDS011;5531;42.570;23.676;2023-08-20T11:59:12;4.97;;;3.47;;
10957;SDS011;5531;42.570;23.676;2023-08-20T12:01:41;4.70;;;3.53;;
10957;SDS011;5531;42.570;23.676;2023-08-20T12:04:10;3.80;;;3.50;;
10957;SDS011;5531;42.570;23.676;2023-08-20T12:06:38;3.70;;;3.40;;
10957;SDS011;5531;42.570;23.676;2023-08-20T12:09:23;6.70;;;3.50;;
10957;SDS011;5531;42.570;23.676;2023-08-20T12:11:52;4.18;;;3.33;;
10957;SDS011;5531;42.570;23.676;2023-08-20T12:14:21;3.85;;;3.35;;
10957;SDS011;5531;42.570;23.676;2023-08-20T12:16:50;5.10;;;3.40;;
10957;SDS011;5531;42.570;23.676;2023-08-20T12:19:19;4.05;;;3.42;;
10957;SDS011;5531;42.570;23.676;2023-08-20T12:21:47;4.78;;;3.38;;
10957;SDS011;5531;42.570;23.676;2023-08-20T12:24:17;4.47;;;3.13;;
10957;SDS011;5531;42.570;23.676;2023-08-20T12:26:48;4.72;;;3.75;;
10957;SDS011;5531;42.570;23.676;2023-08-20T12:29:17;3.83;;;3.40;;
10957;SDS011;5531;42.570;23.676;2023-08-20T12:31:51;3.67;;;3.38;;
10957;SDS011;5531;42.570;23.676;2023-08-20T12:34:27;5.50;;;3.72;;
10957;SDS011;5531;42.570;23.676;2023-08-20T12:37:03;4.53;;;3.30;;
10957;SDS011;5531;42.570;23.676;2023-08-20T12:39:37;4.40;;;3.20;;
10957;SDS011;5531;42.570;23.676;2023-08-20T12:42:09;3.50;;;3.20;;
10957;SDS011;5531;42.570;23.676;2023-08-20T12:44:38;5.00;;;3.45;;
10957;SDS011;5531;42.570;23.676;2023-08-20T12:47:06;10.05;;;3.60;;
10957;SDS011;5531;42.570;23.676;2023-08-20T12:49:35;4.45;;;3.40;;
10957;SDS011;5531;42.570;23.676;2023-08-20T12:52:03;4.68;;;3.28;;
10957;SDS011;5531;42.570;23.676;2023-08-20T12:54:33;4.00;;;3.30;;
10957;SDS011;5531;42.570;23.676;2023-08-20T12:57:02;4.55;;;3.42;;
10957;SDS011;5531;42.570;23.676;2023-08-20T12:59:34;3.78;;;3.47;;
10957;SDS011;5531;42.570;23.676;2023-08-20T13:02:02;4.60;;;3.50;;
10957;SDS011;5531;42.570;23.676;2023-08-20T13:04:31;4.93;;;3.20;;
10957;SDS011;5531;42.570;23.676;2023-08-20T13:07:00;3.60;;;3.30;;
10957;SDS011;5531;42.570;23.676;2023-08-20T13:09:29;3.85;;;3.45;;
10957;SDS011;5531;42.570;23.676;2023-08-20T13:11:58;3.90;;;3.40;;
10957;SDS011;5531;42.570;23.676;2023-08-20T13:14:30;3.92;;;3.10;;
10957;SDS011;5531;42.570;23.676;2023-08-20T13:17:02;3.45;;;3.13;;
10957;SDS011;5531;42.570;23.676;2023-08-20T13:19:30;3.45;;;3.15;;
10957;SDS011;5531;42.570;23.676;2023-08-20T13:21:59;4.22;;;3.30;;
10957;SDS011;5531;42.570;23.676;2023-08-20T13:24:27;4.20;;;3.20;;
10957;SDS011;5531;42.570;23.676;2023-08-20T13:26:56;4.32;;;3.25;;
10957;SDS011;5531;42.570;23.676;2023-08-20T13:29:24;3.97;;;3.40;;
10957;SDS011;5531;42.570;23.676;2023-08-20T13:31:53;3.33;;;3.00;;
10957;SDS011;5531;42.570;23.676;2023-08-20T13:34:24;3.67;;;3.33;;
10957;SDS011;5531;42.570;23.676;2023-08-20T13:36:53;3.60;;;3.30;;
10957;SDS011;5531;42.570;23.676;2023-08-20T13:39:22;5.38;;;3.08;;
10957;SDS011;5531;42.570;23.676;2023-08-20T13:41:50;3.45;;;3.15;;
10957;SDS011;5531;42.570;23.676;2023-08-20T13:44:19;3.53;;;3.22;;
10957;SDS011;5531;42.570;23.676;2023-08-20T13:46:48;3.72;;;3.20;;
10957;SDS011;5531;42.570;23.676;2023-08-20T13:49:16;3.42;;;3.13;;
10957;SDS011;5531;42.570;23.676;2023-08-20T13:51:48;7.68;;;3.10;;
10957;SDS011;5531;42.570;23.676;2023-08-20T13:54:16;5.38;;;3.40;;
10957;SDS011;5531;42.570;23.676;2023-08-20T13:56:45;5.38;;;3.33;;
10957;SDS011;5531;42.570;23.676;2023-08-20T13:59:13;4.25;;;2.97;;
10957;SDS011;5531;42.570;23.676;2023-08-20T14:01:42;5.78;;;3.20;;
10957;SDS011;5531;42.570;23.676;2023-08-20T14:04:10;3.80;;;3.00;;
10957;SDS011;5531;42.570;23.676;2023-08-20T14:06:39;3.65;;;3.25;;
10957;SDS011;5531;42.570;23.676;2023-08-20T14:09:10;3.38;;;2.97;;
10957;SDS011;5531;42.570;23.676;2023-08-20T14:11:39;3.60;;;3.30;;
10957;SDS011;5531;42.570;23.676;2023-08-20T14:14:07;3.97;;;3.13;;
10957;SDS011;5531;42.570;23.676;2023-08-20T14:16:36;3.50;;;3.00;;
10957;SDS011;5531;42.570;23.676;2023-08-20T14:19:05;4.15;;;2.83;;
10957;SDS011;5531;42.570;23.676;2023-08-20T14:21:33;6.00;;;3.28;;
10957;SDS011;5531;42.570;23.676;2023-08-20T14:24:02;3.47;;;3.17;;
10957;SDS011;5531;42.570;23.676;2023-08-20T14:26:33;3.10;;;2.90;;
10957;SDS011;5531;42.570;23.676;2023-08-20T14:29:02;3.30;;;3.00;;
10957;SDS011;5531;42.570;23.676;2023-08-20T14:31:30;3.40;;;3.10;;
10957;SDS011;5531;42.570;23.676;2023-08-20T14:33:59;3.20;;;2.90;;
10957;SDS011;5531;42.570;23.676;2023-08-20T14:36:28;5.55;;;3.03;;
10957;SDS011;5531;42.570;23.676;2023-08-20T14:38:56;3.10;;;2.90;;
10957;SDS011;5531;42.570;23.676;2023-08-20T14:41:25;3.20;;;2.90;;
10957;SDS011;5531;42.570;23.676;2023-08-20T14:43:56;3.63;;;3.00;;
10957;SDS011;5531;42.570;23.676;2023-08-20T14:46:25;3.25;;;2.95;;
10957;SDS011;5531;42.570;23.676;2023-08-20T14:48:53;3.38;;;3.05;;
10957;SDS011;5531;42.570;23.676;2023-08-20T14:51:22;4.32;;;3.20;;
10957;SDS011;5531;42.570;23.676;2023-08-20T14:53:51;3.60;;;3.13;;
10957;SDS011;5531;42.570;23.676;2023-08-20T14:56:20;3.75;;;3.20;;
10957;SDS011;5531;42.570;23.676;2023-08-20T14:58:49;4.25;;;3.28;;
10957;SDS011;5531;42.570;23.676;2023-08-20T15:01:20;3.53;;;3.22;;